Time;durP1;ratioP1;P1;durP2;ratioP2;P2;SDS_P1;SDS_P2;PMS_P1;PMS_P2;Temp;Humidity;BMP_temperature;BMP_pressure;BME280_temperature;BME280_humidity;BME280_pressure;Samples;Min_cycle;Max_cycle;Signal;HPM_P1;HPM_P2
2021/03/09 00:00:11;;;;;;;6.07;5.47;;;;;;;;;;5112095;28;20311;-43
2021/03/09 00:02:36;;;;;;;6.00;5.27;;;;;;;;;;5110830;28;20174;-42
2021/03/09 00:05:01;;;;;;;8.30;5.30;;;;;;;;;;5111947;28;20937;-42
2021/03/09 00:07:26;;;;;;;5.37;4.87;;;;;;;;;;5111666;28;20261;-43
2021/03/09 00:09:52;;;;;;;7.47;5.45;;;;;;;;;;5112022;28;20261;-42
2021/03/09 00:12:18;;;;;;;6.97;5.20;;;;;;;;;;5111595;28;20238;-43
2021/03/09 00:14:43;;;;;;;7.60;5.30;;;;;;;;;;5111069;28;20608;-42
2021/03/09 00:17:08;;;;;;;7.07;5.20;;;;;;;;;;5110979;28;20220;-42
2021/03/09 00:19:34;;;;;;;6.70;5.97;;;;;;;;;;5092952;28;20163;-43
2021/03/09 00:21:59;;;;;;;5.50;4.70;;;;;;;;;;5111314;28;20257;-42
2021/03/09 00:24:24;;;;;;;6.17;5.10;;;;;;;;;;5110738;28;20204;-43
2021/03/09 00:26:49;;;;;;;5.30;4.63;;;;;;;;;;5111328;28;20175;-43
2021/03/09 00:29:14;;;;;;;5.50;4.80;;;;;;;;;;5111348;28;20202;-44
2021/03/09 00:31:40;;;;;;;6.77;4.97;;;;;;;;;;5111355;28;20207;-43
2021/03/09 00:34:05;;;;;;;7.05;4.95;;;;;;;;;;5110835;28;20265;-42
2021/03/09 00:36:30;;;;;;;7.10;5.07;;;;;;;;;;5110708;28;20193;-42
2021/03/09 00:38:55;;;;;;;4.95;4.50;;;;;;;;;;5110516;28;20580;-43
2021/03/09 00:41:20;;;;;;;6.60;5.80;;;;;;;;;;5110714;27;20198;-42
2021/03/09 00:43:45;;;;;;;6.57;5.73;;;;;;;;;;5111182;27;20187;-41
2021/03/09 00:46:10;;;;;;;6.68;5.28;;;;;;;;;;5110420;28;20914;-41
2021/03/09 00:48:36;;;;;;;6.03;5.43;;;;;;;;;;5110669;28;20170;-42
2021/03/09 00:51:02;;;;;;;5.40;4.90;;;;;;;;;;5110840;28;20209;-41
2021/03/09 00:53:27;;;;;;;6.00;4.80;;;;;;;;;;5109846;28;20739;-42
2021/03/09 00:55:52;;;;;;;5.90;4.93;;;;;;;;;;5110276;28;20694;-42
2021/03/09 00:58:17;;;;;;;9.82;5.85;;;;;;;;;;5110253;28;20671;-42
2021/03/09 01:00:42;;;;;;;6.53;5.93;;;;;;;;;;5110477;28;20170;-43
2021/03/09 01:03:07;;;;;;;8.50;5.70;;;;;;;;;;5110567;28;20215;-42
2021/03/09 01:05:33;;;;;;;5.80;5.20;;;;;;;;;;5110161;28;20170;-42
2021/03/09 01:07:58;;;;;;;5.73;5.20;;;;;;;;;;5110149;28;20193;-42
2021/03/09 01:10:23;;;;;;;6.10;5.20;;;;;;;;;;5110489;28;20640;-42
2021/03/09 01:12:48;;;;;;;7.03;6.07;;;;;;;;;;5109753;28;20200;-42
2021/03/09 01:15:14;;;;;;;5.33;4.83;;;;;;;;;;5110038;28;20246;-42
2021/03/09 01:17:39;;;;;;;6.50;5.20;;;;;;;;;;5109996;28;20197;-42
2021/03/09 01:20:05;;;;;;;5.20;4.70;;;;;;;;;;5110138;28;20176;-42
2021/03/09 01:22:30;;;;;;;5.40;5.00;;;;;;;;;;5109138;28;20697;-43
2021/03/09 01:24:56;;;;;;;5.47;4.87;;;;;;;;;;5109724;28;20619;-41
2021/03/09 01:27:21;;;;;;;7.43;5.70;;;;;;;;;;5109743;28;20185;-41
2021/03/09 01:29:46;;;;;;;5.10;4.60;;;;;;;;;;5110193;28;20550;-42
2021/03/09 01:32:11;;;;;;;8.10;5.60;;;;;;;;;;5110278;28;20170;-42
2021/03/09 01:34:36;;;;;;;5.70;5.10;;;;;;;;;;5109475;28;20197;-42
2021/03/09 01:37:02;;;;;;;7.17;5.47;;;;;;;;;;5109958;28;20198;-42
2021/03/09 01:39:27;;;;;;;5.40;4.90;;;;;;;;;;5109418;28;20190;-42
2021/03/09 01:41:53;;;;;;;5.68;5.18;;;;;;;;;;5109573;28;21187;-42
2021/03/09 01:44:18;;;;;;;6.47;5.78;;;;;;;;;;5109236;28;20166;-42
2021/03/09 01:46:44;;;;;;;7.97;4.90;;;;;;;;;;5109219;28;20177;-42
2021/03/09 01:49:11;;;;;;;7.43;5.50;;;;;;;;;;5109118;28;20197;-42
2021/03/09 01:51:36;;;;;;;5.90;5.27;;;;;;;;;;5108658;28;20680;-42
2021/03/09 01:54:02;;;;;;;5.68;5.20;;;;;;;;;;5109302;28;21350;-42
2021/03/09 01:56:27;;;;;;;7.50;5.50;;;;;;;;;;5109608;28;20251;-42
2021/03/09 01:58:53;;;;;;;5.87;5.20;;;;;;;;;;5109450;28;20204;-43
2021/03/09 02:01:18;;;;;;;4.83;4.53;;;;;;;;;;5107841;28;20173;-45
2021/03/09 02:03:44;;;;;;;9.00;5.77;;;;;;;;;;5108964;28;20691;-43
2021/03/09 02:06:11;;;;;;;6.10;5.50;;;;;;;;;;5109410;28;20165;-43
2021/03/09 02:08:37;;;;;;;6.57;5.50;;;;;;;;;;5108779;28;20192;-43
2021/03/09 02:11:06;;;;;;;6.33;4.50;;;;;;;;;;5109410;28;20600;-43
2021/03/09 02:13:36;;;;;;;5.60;5.10;;;;;;;;;;5108872;28;20183;-42
2021/03/09 02:16:10;;;;;;;5.97;5.37;;;;;;;;;;5109402;28;21171;-44
2021/03/09 02:18:42;;;;;;;5.60;5.00;;;;;;;;;;5108847;28;20605;-43
2021/03/09 02:21:33;;;;;;;6.13;5.53;;;;;;;;;;5109401;28;20736;-45
2021/03/09 02:23:58;;;;;;;6.00;5.40;;;;;;;;;;5077419;28;20694;-42
2021/03/09 02:26:50;;;;;;;4.82;4.40;;;;;;;;;;5108789;28;20700;-43
2021/03/09 02:29:26;;;;;;;5.87;5.00;;;;;;;;;;5103818;28;20656;-43
2021/03/09 02:31:53;;;;;;;5.53;4.70;;;;;;;;;;5109223;28;20595;-44
2021/03/09 02:34:22;;;;;;;6.07;5.37;;;;;;;;;;5108510;28;20606;-43
2021/03/09 02:36:47;;;;;;;5.30;4.80;;;;;;;;;;5099280;28;20623;-43
2021/03/09 02:39:13;;;;;;;5.40;4.90;;;;;;;;;;5109195;28;20607;-43
2021/03/09 02:41:48;;;;;;;6.23;5.10;;;;;;;;;;5109181;28;20540;-43
2021/03/09 02:44:15;;;;;;;3.97;3.67;;;;;;;;;;5109233;28;20666;-43
2021/03/09 02:46:43;;;;;;;5.83;5.27;;;;;;;;;;5108756;28;20690;-42
2021/03/09 02:49:09;;;;;;;5.20;4.80;;;;;;;;;;5108941;28;20646;-45
2021/03/09 02:51:36;;;;;;;4.70;4.30;;;;;;;;;;5108675;28;20631;-42
2021/03/09 02:54:02;;;;;;;5.33;4.90;;;;;;;;;;5108788;28;20668;-42
2021/03/09 02:56:27;;;;;;;5.13;4.70;;;;;;;;;;5108996;28;21244;-43
2021/03/09 02:58:53;;;;;;;4.80;4.40;;;;;;;;;;5108725;28;20591;-42
2021/03/09 03:01:19;;;;;;;5.30;4.73;;;;;;;;;;5109399;28;20228;-43
2021/03/09 03:03:45;;;;;;;5.00;4.60;;;;;;;;;;5112222;28;20587;-43
2021/03/09 03:06:10;;;;;;;4.90;4.40;;;;;;;;;;5113201;28;20177;-43
2021/03/09 03:08:36;;;;;;;5.07;4.57;;;;;;;;;;5112334;28;20683;-43
2021/03/09 03:11:03;;;;;;;8.70;5.27;;;;;;;;;;5113012;28;20174;-43
2021/03/09 03:13:29;;;;;;;5.00;4.50;;;;;;;;;;5112204;28;20645;-43
2021/03/09 03:15:54;;;;;;;5.30;4.80;;;;;;;;;;5112831;28;21558;-43
2021/03/09 03:18:20;;;;;;;5.77;5.27;;;;;;;;;;5112600;28;20987;-43
2021/03/09 03:20:47;;;;;;;6.50;5.50;;;;;;;;;;5108328;28;20181;-43
2021/03/09 03:23:13;;;;;;;6.07;5.10;;;;;;;;;;5112575;28;20166;-42
2021/03/09 03:25:38;;;;;;;7.17;5.63;;;;;;;;;;5112172;28;20599;-41
2021/03/09 03:28:06;;;;;;;5.87;4.57;;;;;;;;;;5112309;28;20591;-42
2021/03/09 03:30:31;;;;;;;6.07;4.90;;;;;;;;;;5111935;28;20174;-42
2021/03/09 03:32:56;;;;;;;5.83;4.20;;;;;;;;;;5112152;27;20735;-42
2021/03/09 03:35:21;;;;;;;6.10;4.63;;;;;;;;;;5112258;28;20176;-42
2021/03/09 03:37:47;;;;;;;5.07;4.67;;;;;;;;;;5112421;28;20201;-42
2021/03/09 03:40:16;;;;;;;9.67;5.37;;;;;;;;;;5112047;28;20679;-42
2021/03/09 03:42:42;;;;;;;5.33;4.67;;;;;;;;;;5111737;28;20177;-42
2021/03/09 03:45:08;;;;;;;6.70;5.40;;;;;;;;;;5111638;28;20595;-43
2021/03/09 03:47:34;;;;;;;5.93;4.90;;;;;;;;;;5111930;28;21224;-43
2021/03/09 03:49:59;;;;;;;6.30;5.53;;;;;;;;;;5112330;27;20181;-43
2021/03/09 03:52:31;;;;;;;5.70;5.10;;;;;;;;;;5111844;28;20675;-43
2021/03/09 03:55:26;;;;;;;6.80;5.50;;;;;;;;;;5111636;28;20221;-42
2021/03/09 03:57:52;;;;;;;6.60;6.00;;;;;;;;;;5082620;28;21265;-41
2021/03/09 04:00:18;;;;;;;7.93;5.70;;;;;;;;;;5111549;28;20615;-42
2021/03/09 04:02:44;;;;;;;9.93;6.30;;;;;;;;;;5111666;28;20623;-41
2021/03/09 04:05:10;;;;;;;7.67;5.90;;;;;;;;;;5108647;27;21212;-43
2021/03/09 04:07:36;;;;;;;6.70;6.10;;;;;;;;;;5108161;27;20595;-42
2021/03/09 04:10:03;;;;;;;7.33;6.00;;;;;;;;;;5111747;27;20664;-42
2021/03/09 04:12:29;;;;;;;7.07;6.37;;;;;;;;;;5111218;27;20630;-42
2021/03/09 04:14:57;;;;;;;8.10;7.07;;;;;;;;;;5111969;27;20641;-42
2021/03/09 04:17:22;;;;;;;7.20;6.53;;;;;;;;;;5111847;27;20202;-42
2021/03/09 04:19:48;;;;;;;8.00;6.10;;;;;;;;;;5111899;27;20955;-44
2021/03/09 04:22:14;;;;;;;7.20;6.00;;;;;;;;;;5117425;27;20176;-43
2021/03/09 04:24:39;;;;;;;9.43;6.83;;;;;;;;;;5111258;28;20174;-43
2021/03/09 04:27:04;;;;;;;6.63;5.20;;;;;;;;;;5110697;28;20596;-43
2021/03/09 04:29:30;;;;;;;8.50;6.57;;;;;;;;;;5108760;28;20529;-43
2021/03/09 04:31:55;;;;;;;8.07;6.40;;;;;;;;;;5111597;28;20191;-43
2021/03/09 04:34:20;;;;;;;7.00;5.87;;;;;;;;;;5110476;28;20231;-41
2021/03/09 04:36:46;;;;;;;7.33;6.00;;;;;;;;;;5110324;28;20215;-42
2021/03/09 04:39:11;;;;;;;6.47;5.93;;;;;;;;;;5111177;27;20219;-42
2021/03/09 04:41:36;;;;;;;6.20;5.60;;;;;;;;;;5110602;28;20607;-49
2021/03/09 04:44:02;;;;;;;7.40;6.70;;;;;;;;;;5108828;27;20185;-42
2021/03/09 04:46:27;;;;;;;5.87;5.27;;;;;;;;;;5108397;27;20188;-42
2021/03/09 04:48:52;;;;;;;9.10;6.63;;;;;;;;;;5107425;28;20720;-48
2021/03/09 04:51:18;;;;;;;7.37;6.10;;;;;;;;;;5107651;28;20638;-42
2021/03/09 04:53:43;;;;;;;7.57;6.80;;;;;;;;;;5106817;28;20775;-41
2021/03/09 04:56:09;;;;;;;7.73;6.00;;;;;;;;;;5087839;28;20166;-43
2021/03/09 04:58:34;;;;;;;7.80;6.23;;;;;;;;;;5107282;28;20223;-42
2021/03/09 05:00:59;;;;;;;6.70;6.00;;;;;;;;;;5107250;28;20217;-42
2021/03/09 05:03:24;;;;;;;9.53;6.93;;;;;;;;;;5107309;28;20232;-43
2021/03/09 05:05:50;;;;;;;7.40;5.47;;;;;;;;;;5088337;28;20347;-42
2021/03/09 05:08:16;;;;;;;8.10;6.43;;;;;;;;;;5106787;28;20174;-42
2021/03/09 05:10:41;;;;;;;9.17;6.13;;;;;;;;;;5107133;28;20603;-42
2021/03/09 05:13:06;;;;;;;7.70;6.40;;;;;;;;;;5107519;28;20183;-41
2021/03/09 05:15:31;;;;;;;8.20;6.60;;;;;;;;;;5088816;28;20638;-41
2021/03/09 05:17:57;;;;;;;6.73;6.03;;;;;;;;;;5106726;28;20197;-42
2021/03/09 05:20:22;;;;;;;8.03;7.00;;;;;;;;;;5104321;28;20209;-42
2021/03/09 05:22:47;;;;;;;8.30;6.63;;;;;;;;;;5106050;28;20177;-42
2021/03/09 05:25:14;;;;;;;9.37;6.80;;;;;;;;;;5103615;28;20176;-42
2021/03/09 05:27:39;;;;;;;9.43;7.67;;;;;;;;;;5106265;28;20286;-48
2021/03/09 05:30:05;;;;;;;11.60;7.20;;;;;;;;;;5105925;28;20703;-43
2021/03/09 05:32:30;;;;;;;9.83;6.20;;;;;;;;;;5106766;28;20174;-42
2021/03/09 05:34:55;;;;;;;8.77;7.00;;;;;;;;;;5106519;28;20205;-42
2021/03/09 05:37:20;;;;;;;6.33;5.70;;;;;;;;;;5107047;27;20857;-42
2021/03/09 05:39:45;;;;;;;7.10;6.30;;;;;;;;;;5107380;27;20191;-42
2021/03/09 05:42:11;;;;;;;8.10;6.53;;;;;;;;;;5106634;28;20182;-42
2021/03/09 05:44:37;;;;;;;11.20;6.47;;;;;;;;;;5107649;27;20173;-42
2021/03/09 05:47:03;;;;;;;7.90;6.53;;;;;;;;;;5106215;28;21161;-42
2021/03/09 05:49:28;;;;;;;7.90;6.57;;;;;;;;;;5105691;28;20261;-42
2021/03/09 05:51:53;;;;;;;6.97;6.27;;;;;;;;;;5106288;28;21196;-42
2021/03/09 05:54:20;;;;;;;6.60;5.73;;;;;;;;;;5105942;28;20234;-43
2021/03/09 05:56:45;;;;;;;8.27;6.40;;;;;;;;;;5087474;28;20197;-43
2021/03/09 05:59:10;;;;;;;7.13;5.78;;;;;;;;;;5106523;28;20661;-43
2021/03/09 06:01:35;;;;;;;7.50;6.80;;;;;;;;;;5105384;28;20181;-43
2021/03/09 06:04:01;;;;;;;7.50;6.43;;;;;;;;;;5105058;28;20205;-43
2021/03/09 06:06:26;;;;;;;9.27;7.23;;;;;;;;;;5106212;28;20173;-43
2021/03/09 06:08:51;;;;;;;10.53;7.70;;;;;;;;;;5084272;28;20181;-41
2021/03/09 06:11:17;;;;;;;7.80;6.60;;;;;;;;;;5104500;28;20277;-43
2021/03/09 06:13:42;;;;;;;9.40;6.40;;;;;;;;;;5105713;28;20177;-42
2021/03/09 06:16:08;;;;;;;7.90;6.60;;;;;;;;;;5106434;28;20607;-42
2021/03/09 06:18:33;;;;;;;9.43;6.40;;;;;;;;;;5107395;28;20193;-43
2021/03/09 06:21:14;;;;;;;9.23;6.20;;;;;;;;;;5107679;28;20174;-42
2021/03/09 06:23:40;;;;;;;7.80;6.73;;;;;;;;;;5108387;28;20265;-41
2021/03/09 06:26:25;;;;;;;9.33;7.10;;;;;;;;;;5107845;28;20685;-42
2021/03/09 06:29:05;;;;;;;8.70;7.37;;;;;;;;;;5106799;28;20174;-42
2021/03/09 06:31:30;;;;;;;7.17;6.03;;;;;;;;;;5109203;28;20624;-42
2021/03/09 06:33:56;;;;;;;10.70;7.00;;;;;;;;;;5108928;28;20591;-42
2021/03/09 06:36:21;;;;;;;8.03;7.10;;;;;;;;;;5109865;28;20202;-43
2021/03/09 06:38:53;;;;;;;8.75;6.07;;;;;;;;;;5113382;28;20666;-42
2021/03/09 06:41:18;;;;;;;7.90;6.90;;;;;;;;;;5113408;28;20189;-43
2021/03/09 06:43:58;;;;;;;10.50;7.10;;;;;;;;;;5112970;28;21176;-43
2021/03/09 06:46:23;;;;;;;11.00;6.87;;;;;;;;;;5112602;28;20660;-42
2021/03/09 06:48:50;;;;;;;9.27;6.83;;;;;;;;;;5112956;28;20575;-42
2021/03/09 06:51:26;;;;;;;9.40;7.83;;;;;;;;;;5112974;28;20306;-42
2021/03/09 06:54:05;;;;;;;11.67;7.90;;;;;;;;;;5112625;28;20643;-42
2021/03/09 06:56:30;;;;;;;11.63;7.43;;;;;;;;;;5112885;28;20598;-42
2021/03/09 06:58:55;;;;;;;9.87;7.77;;;;;;;;;;5113007;28;20591;-42
2021/03/09 07:01:21;;;;;;;8.73;7.13;;;;;;;;;;5112940;28;20177;-44
2021/03/09 07:03:46;;;;;;;12.50;7.30;;;;;;;;;;5112231;27;20216;-43
2021/03/09 07:06:11;;;;;;;8.70;7.60;;;;;;;;;;5112293;28;20185;-42
2021/03/09 07:08:37;;;;;;;11.93;8.82;;;;;;;;;;5113364;28;20178;-42
2021/03/09 07:11:02;;;;;;;8.83;7.77;;;;;;;;;;5113431;28;20190;-42
2021/03/09 07:13:28;;;;;;;11.60;7.40;;;;;;;;;;5113352;28;20182;-42
2021/03/09 07:15:53;;;;;;;10.70;7.67;;;;;;;;;;5112692;28;20552;-43
2021/03/09 07:18:26;;;;;;;10.60;8.20;;;;;;;;;;5113876;27;20216;-43
2021/03/09 07:20:53;;;;;;;8.13;7.20;;;;;;;;;;5112504;27;20778;-43
2021/03/09 07:23:18;;;;;;;8.10;7.40;;;;;;;;;;5112883;28;20965;-42
2021/03/09 07:25:46;;;;;;;10.87;7.40;;;;;;;;;;5111196;28;20585;-43
2021/03/09 07:28:12;;;;;;;10.23;8.17;;;;;;;;;;5094407;28;20178;-42
2021/03/09 07:30:40;;;;;;;9.70;7.97;;;;;;;;;;5112649;28;20918;-43
2021/03/09 07:33:06;;;;;;;11.27;8.23;;;;;;;;;;5112527;28;21134;-43
2021/03/09 07:35:31;;;;;;;10.20;7.83;;;;;;;;;;5111480;28;20603;-42
2021/03/09 07:37:57;;;;;;;10.33;7.80;;;;;;;;;;5112205;28;20210;-40
2021/03/09 07:40:27;;;;;;;10.83;7.90;;;;;;;;;;5112341;28;20653;-42
2021/03/09 07:42:52;;;;;;;10.30;8.03;;;;;;;;;;5111325;28;20693;-44
2021/03/09 07:45:19;;;;;;;12.70;8.73;;;;;;;;;;5112322;28;20605;-43
2021/03/09 07:47:47;;;;;;;11.30;9.20;;;;;;;;;;5111577;28;20174;-43
2021/03/09 07:50:14;;;;;;;11.20;9.40;;;;;;;;;;5112211;28;20642;-43
2021/03/09 07:52:39;;;;;;;12.20;9.40;;;;;;;;;;5112248;28;21125;-43
2021/03/09 07:55:04;;;;;;;11.03;8.40;;;;;;;;;;5111815;28;20666;-42
2021/03/09 07:57:33;;;;;;;11.20;8.90;;;;;;;;;;5111585;28;20203;-42
2021/03/09 08:00:05;;;;;;;11.27;8.63;;;;;;;;;;5108487;28;20238;-43
2021/03/09 08:02:51;;;;;;;13.90;9.17;;;;;;;;;;5109544;28;21171;-41
2021/03/09 08:05:17;;;;;;;11.43;8.87;;;;;;;;;;5108436;27;20634;-41
2021/03/09 08:07:51;;;;;;;11.70;9.50;;;;;;;;;;5108670;28;20620;-41
2021/03/09 08:10:29;;;;;;;10.70;8.77;;;;;;;;;;5114092;27;20674;-44
2021/03/09 08:13:06;;;;;;;10.27;9.27;;;;;;;;;;5108802;28;21051;-43
2021/03/09 08:15:31;;;;;;;10.37;9.27;;;;;;;;;;5108378;27;20711;-43
2021/03/09 08:18:16;;;;;;;11.13;8.70;;;;;;;;;;5107893;28;21285;-42
2021/03/09 08:20:48;;;;;;;9.87;8.83;;;;;;;;;;5103235;28;20165;-42
2021/03/09 08:23:31;;;;;;;12.90;9.73;;;;;;;;;;5108727;28;20579;-42
2021/03/09 08:25:56;;;;;;;10.73;9.53;;;;;;;;;;5091519;28;20602;-42
2021/03/09 08:28:31;;;;;;;12.43;9.50;;;;;;;;;;5107362;28;20595;-44
2021/03/09 08:31:08;;;;;;;10.93;9.60;;;;;;;;;;5107645;28;20181;-42
2021/03/09 08:33:34;;;;;;;10.93;9.10;;;;;;;;;;5108193;28;21438;-43
2021/03/09 08:35:59;;;;;;;10.53;8.47;;;;;;;;;;5107955;28;20657;-43
2021/03/09 08:38:25;;;;;;;13.00;10.50;;;;;;;;;;5107875;28;20205;-43
2021/03/09 08:40:57;;;;;;;12.30;9.70;;;;;;;;;;5107028;28;20201;-43
2021/03/09 08:43:22;;;;;;;12.37;10.27;;;;;;;;;;5107870;28;20188;-43
2021/03/09 08:45:50;;;;;;;10.60;9.10;;;;;;;;;;5108172;28;20955;-42
2021/03/09 08:48:15;;;;;;;14.10;10.10;;;;;;;;;;5108273;28;20658;-43
2021/03/09 08:50:42;;;;;;;11.17;9.80;;;;;;;;;;5107537;28;20615;-43
2021/03/09 08:53:25;;;;;;;13.00;11.00;;;;;;;;;;5107336;28;20181;-43
2021/03/09 08:55:54;;;;;;;12.10;10.77;;;;;;;;;;5107142;28;21391;-42
2021/03/09 08:58:19;;;;;;;12.40;10.60;;;;;;;;;;5107682;28;20752;-42
2021/03/09 09:00:44;;;;;;;15.07;11.60;;;;;;;;;;5104099;28;20713;-42
2021/03/09 09:03:09;;;;;;;12.65;11.32;;;;;;;;;;5105841;28;20196;-41
2021/03/09 09:05:34;;;;;;;15.35;12.52;;;;;;;;;;5102830;28;20213;-43
2021/03/09 09:07:59;;;;;;;13.30;10.50;;;;;;;;;;5106609;28;20188;-42
2021/03/09 09:10:28;;;;;;;12.23;10.93;;;;;;;;;;5106828;28;20174;-43
2021/03/09 09:12:54;;;;;;;12.37;11.07;;;;;;;;;;5108455;28;20174;-44
2021/03/09 09:15:29;;;;;;;13.90;11.77;;;;;;;;;;5110034;28;20588;-42
2021/03/09 09:17:55;;;;;;;13.87;11.63;;;;;;;;;;5108540;28;20653;-43
2021/03/09 09:20:29;;;;;;;12.73;10.80;;;;;;;;;;5109547;28;20592;-43
2021/03/09 09:22:55;;;;;;;14.33;10.90;;;;;;;;;;5109906;28;20609;-43
2021/03/09 09:25:22;;;;;;;16.13;12.67;;;;;;;;;;5109501;28;20592;-43
2021/03/09 09:27:53;;;;;;;14.13;12.27;;;;;;;;;;5109097;28;20719;-43
2021/03/09 09:30:22;;;;;;;14.13;11.53;;;;;;;;;;5104220;28;20623;-43
2021/03/09 09:32:55;;;;;;;13.43;11.80;;;;;;;;;;5088708;28;20592;-44
2021/03/09 09:35:22;;;;;;;13.30;11.90;;;;;;;;;;5108183;28;20591;-43
2021/03/09 09:37:48;;;;;;;13.27;11.87;;;;;;;;;;5109735;28;20998;-43
2021/03/09 09:40:16;;;;;;;13.47;11.43;;;;;;;;;;5109318;28;20735;-43
2021/03/09 09:42:41;;;;;;;13.47;11.93;;;;;;;;;;5106282;27;20684;-43
2021/03/09 09:45:06;;;;;;;15.70;12.40;;;;;;;;;;5096480;27;20951;-43
2021/03/09 09:47:32;;;;;;;14.20;12.37;;;;;;;;;;5109481;28;20677;-43
2021/03/09 09:49:57;;;;;;;12.80;11.57;;;;;;;;;;5109107;28;20205;-43
2021/03/09 09:52:22;;;;;;;12.80;11.40;;;;;;;;;;5109789;28;20653;-43
2021/03/09 09:54:52;;;;;;;14.40;12.30;;;;;;;;;;5109090;28;20218;-43
2021/03/09 09:57:17;;;;;;;12.67;11.07;;;;;;;;;;5109648;28;20207;-43
2021/03/09 09:59:42;;;;;;;16.33;12.25;;;;;;;;;;5105018;27;20598;-43
2021/03/09 10:02:16;;;;;;;11.80;10.00;;;;;;;;;;5110150;27;20344;-43
2021/03/09 10:04:41;;;;;;;14.60;10.07;;;;;;;;;;5108380;27;20181;-42
2021/03/09 10:07:14;;;;;;;13.57;10.40;;;;;;;;;;5109381;27;20599;-41
2021/03/09 10:09:39;;;;;;;12.40;10.43;;;;;;;;;;5109226;28;20185;-45
2021/03/09 10:12:05;;;;;;;11.53;9.77;;;;;;;;;;5107273;28;20603;-44
2021/03/09 10:14:36;;;;;;;11.00;9.83;;;;;;;;;;5108549;28;20230;-43
2021/03/09 10:17:02;;;;;;;10.93;9.57;;;;;;;;;;5106772;28;20642;-42
2021/03/09 10:19:35;;;;;;;13.73;10.23;;;;;;;;;;5108860;28;20702;-42
2021/03/09 10:22:00;;;;;;;12.30;10.50;;;;;;;;;;5107852;28;21144;-43
2021/03/09 10:24:28;;;;;;;11.63;9.47;;;;;;;;;;5106984;28;20598;-43
2021/03/09 10:26:53;;;;;;;10.53;9.33;;;;;;;;;;5108313;28;20173;-43
2021/03/09 10:29:20;;;;;;;10.52;8.88;;;;;;;;;;5108430;28;20584;-41
2021/03/09 10:31:48;;;;;;;12.43;9.90;;;;;;;;;;5108907;28;20174;-42
2021/03/09 10:34:14;;;;;;;10.80;9.30;;;;;;;;;;5107165;28;20623;-42
2021/03/09 10:36:46;;;;;;;11.60;9.50;;;;;;;;;;5108835;28;20567;-42
2021/03/09 10:39:11;;;;;;;10.47;9.37;;;;;;;;;;5099939;28;20296;-42
2021/03/09 10:41:36;;;;;;;10.27;9.00;;;;;;;;;;5103349;28;21171;-43
2021/03/09 10:44:01;;;;;;;11.20;8.03;;;;;;;;;;5108844;28;20178;-42
2021/03/09 10:46:27;;;;;;;9.13;7.32;;;;;;;;;;5109186;28;20484;-43
2021/03/09 10:48:52;;;;;;;7.00;6.30;;;;;;;;;;5109095;28;20162;-43
2021/03/09 10:51:18;;;;;;;6.43;5.82;;;;;;;;;;5108554;28;20258;-43
2021/03/09 10:53:43;;;;;;;7.67;6.87;;;;;;;;;;5108594;28;20241;-42
2021/03/09 10:56:08;;;;;;;6.33;5.70;;;;;;;;;;5108707;28;21135;-42
2021/03/09 10:58:33;;;;;;;7.67;6.53;;;;;;;;;;5108862;28;20206;-42
2021/03/09 11:00:59;;;;;;;6.63;5.65;;;;;;;;;;5108161;28;20173;-43
2021/03/09 11:03:24;;;;;;;8.52;5.57;;;;;;;;;;5093349;28;20177;-43
2021/03/09 11:05:49;;;;;;;5.45;4.80;;;;;;;;;;5103903;28;20712;-42
2021/03/09 11:08:14;;;;;;;6.18;5.53;;;;;;;;;;5108242;28;20169;-42
2021/03/09 11:10:39;;;;;;;5.25;4.85;;;;;;;;;;5108533;28;20208;-42
2021/03/09 11:13:04;;;;;;;5.63;5.00;;;;;;;;;;5108280;28;20629;-43
2021/03/09 11:15:29;;;;;;;5.97;5.32;;;;;;;;;;5108380;28;20182;-42
2021/03/09 11:17:55;;;;;;;7.80;5.27;;;;;;;;;;5107878;28;20678;-43
2021/03/09 11:20:20;;;;;;;5.80;5.20;;;;;;;;;;5108410;28;20201;-42
2021/03/09 11:22:45;;;;;;;6.63;5.30;;;;;;;;;;5109871;28;20173;-43
2021/03/09 11:25:10;;;;;;;6.60;5.73;;;;;;;;;;5112389;28;20337;-41
2021/03/09 11:27:35;;;;;;;5.53;5.03;;;;;;;;;;5111797;28;20542;-42
2021/03/09 11:30:01;;;;;;;5.10;4.63;;;;;;;;;;5111635;28;20233;-43
2021/03/09 11:32:26;;;;;;;7.60;4.60;;;;;;;;;;5112223;28;20603;-43
2021/03/09 11:34:51;;;;;;;5.47;4.90;;;;;;;;;;5119474;27;20189;-44
2021/03/09 11:37:16;;;;;;;5.30;4.80;;;;;;;;;;5132345;27;20200;-43
2021/03/09 11:39:41;;;;;;;6.83;5.37;;;;;;;;;;5132291;27;20219;-41
2021/03/09 11:42:06;;;;;;;6.70;6.00;;;;;;;;;;5112442;27;20202;-41
2021/03/09 11:44:31;;;;;;;6.13;5.63;;;;;;;;;;5111936;28;20169;-42
2021/03/09 11:46:57;;;;;;;5.47;4.93;;;;;;;;;;5111592;28;20645;-41
2021/03/09 11:49:22;;;;;;;5.10;4.60;;;;;;;;;;5112368;28;20180;-42
2021/03/09 11:51:47;;;;;;;4.85;4.45;;;;;;;;;;5112054;28;20173;-40
2021/03/09 11:54:13;;;;;;;4.97;4.57;;;;;;;;;;5111492;28;20316;-42
2021/03/09 11:56:38;;;;;;;5.10;4.60;;;;;;;;;;5111595;28;20249;-42
2021/03/09 11:59:03;;;;;;;5.63;4.40;;;;;;;;;;5112036;28;20199;-43
2021/03/09 12:01:28;;;;;;;6.23;5.30;;;;;;;;;;5111893;28;20173;-43
2021/03/09 12:03:54;;;;;;;4.87;4.37;;;;;;;;;;5111414;28;20261;-42
2021/03/09 12:06:20;;;;;;;5.10;4.60;;;;;;;;;;5111022;28;20179;-42
2021/03/09 12:08:45;;;;;;;5.10;4.30;;;;;;;;;;5111575;28;20266;-42
2021/03/09 12:11:11;;;;;;;6.18;5.10;;;;;;;;;;5110271;28;20618;-42
2021/03/09 12:13:36;;;;;;;5.10;4.60;;;;;;;;;;5103564;28;20554;-42
2021/03/09 12:16:02;;;;;;;6.88;5.07;;;;;;;;;;5108663;28;20175;-42
2021/03/09 12:18:27;;;;;;;5.53;4.90;;;;;;;;;;5110912;28;20257;-43
2021/03/09 12:20:52;;;;;;;6.13;5.20;;;;;;;;;;5110962;28;20288;-42
2021/03/09 12:23:17;;;;;;;5.75;4.88;;;;;;;;;;5111156;28;20187;-43
2021/03/09 12:25:42;;;;;;;4.80;4.30;;;;;;;;;;5110502;27;20212;-43
2021/03/09 12:28:08;;;;;;;5.60;5.05;;;;;;;;;;5110547;28;20187;-43
2021/03/09 12:30:33;;;;;;;5.00;4.50;;;;;;;;;;5088303;28;20206;-42
2021/03/09 12:32:58;;;;;;;5.00;4.60;;;;;;;;;;5107053;27;20540;-42
2021/03/09 12:35:24;;;;;;;5.67;5.07;;;;;;;;;;5113967;27;20267;-42
2021/03/09 12:37:49;;;;;;;6.37;5.30;;;;;;;;;;5108067;27;20617;-42
2021/03/09 12:40:14;;;;;;;5.00;4.53;;;;;;;;;;5108996;27;20201;-42
2021/03/09 12:42:39;;;;;;;4.10;3.70;;;;;;;;;;5107750;28;21046;-42
2021/03/09 12:45:05;;;;;;;5.07;3.93;;;;;;;;;;5106938;28;20191;-42
2021/03/09 12:47:30;;;;;;;6.40;5.77;;;;;;;;;;5107263;28;20366;-41
2021/03/09 12:49:56;;;;;;;7.50;6.13;;;;;;;;;;5104411;28;20178;-42
2021/03/09 12:52:21;;;;;;;6.10;5.60;;;;;;;;;;5107054;28;20215;-44
2021/03/09 12:54:46;;;;;;;5.68;5.18;;;;;;;;;;5107526;28;20703;-42
2021/03/09 12:57:11;;;;;;;6.67;6.00;;;;;;;;;;5107530;28;20193;-42
2021/03/09 12:59:36;;;;;;;5.40;4.87;;;;;;;;;;5106258;28;20620;-42
2021/03/09 13:02:02;;;;;;;6.78;6.00;;;;;;;;;;5107150;28;20713;-42
2021/03/09 13:04:27;;;;;;;7.70;6.00;;;;;;;;;;5107499;28;20643;-43
2021/03/09 13:06:52;;;;;;;6.60;5.90;;;;;;;;;;5107079;28;20176;-44
2021/03/09 13:09:18;;;;;;;6.30;5.70;;;;;;;;;;5107922;28;20186;-41
2021/03/09 13:11:43;;;;;;;7.33;6.17;;;;;;;;;;5106528;28;20965;-41
2021/03/09 13:14:08;;;;;;;8.27;6.68;;;;;;;;;;5107487;28;20167;-42
2021/03/09 13:16:33;;;;;;;8.18;6.53;;;;;;;;;;5106955;28;20260;-42
2021/03/09 13:18:58;;;;;;;7.10;6.40;;;;;;;;;;5106983;28;20288;-42
2021/03/09 13:21:24;;;;;;;7.60;6.53;;;;;;;;;;5104310;28;20646;-42
2021/03/09 13:23:49;;;;;;;7.57;6.80;;;;;;;;;;5107035;28;20183;-42
2021/03/09 13:26:15;;;;;;;8.63;7.80;;;;;;;;;;5106354;28;20177;-42
2021/03/09 13:28:41;;;;;;;8.63;7.83;;;;;;;;;;5108948;28;20617;-42
2021/03/09 13:31:06;;;;;;;8.63;7.80;;;;;;;;;;5109820;28;20184;-42
2021/03/09 13:33:31;;;;;;;9.68;7.93;;;;;;;;;;5109735;28;20616;-42
2021/03/09 13:35:57;;;;;;;9.17;7.93;;;;;;;;;;5110011;28;20227;-42
2021/03/09 13:38:22;;;;;;;8.23;7.32;;;;;;;;;;5102448;27;20222;-43
2021/03/09 13:40:47;;;;;;;8.70;7.40;;;;;;;;;;5105736;28;20677;-42
2021/03/09 13:43:12;;;;;;;8.47;7.60;;;;;;;;;;5110204;27;20645;-42
2021/03/09 13:45:37;;;;;;;7.53;6.72;;;;;;;;;;5110025;28;20541;-43
2021/03/09 13:48:03;;;;;;;7.97;7.17;;;;;;;;;;5109495;28;20164;-41
2021/03/09 13:50:28;;;;;;;9.73;7.23;;;;;;;;;;5109198;28;20205;-42
2021/03/09 13:52:54;;;;;;;8.63;7.73;;;;;;;;;;5109404;28;20177;-42
2021/03/09 13:55:19;;;;;;;10.67;7.50;;;;;;;;;;5109832;28;20226;-43
2021/03/09 13:57:44;;;;;;;7.20;6.50;;;;;;;;;;5118014;27;20211;-42
2021/03/09 14:00:10;;;;;;;7.35;6.45;;;;;;;;;;5109871;27;20192;-43
2021/03/09 14:02:36;;;;;;;7.47;6.67;;;;;;;;;;5109870;28;20195;-42
2021/03/09 14:05:01;;;;;;;6.77;6.07;;;;;;;;;;5108188;28;20991;-42
2021/03/09 14:07:26;;;;;;;8.38;7.03;;;;;;;;;;5108606;27;20184;-43
2021/03/09 14:09:51;;;;;;;8.07;5.87;;;;;;;;;;5106628;27;20227;-43
2021/03/09 14:12:16;;;;;;;6.72;6.07;;;;;;;;;;5108304;28;20172;-42
2021/03/09 14:14:41;;;;;;;6.70;5.80;;;;;;;;;;5108792;28;20179;-43
2021/03/09 14:17:07;;;;;;;8.63;6.57;;;;;;;;;;5107592;28;20217;-43
2021/03/09 14:19:32;;;;;;;7.43;6.53;;;;;;;;;;5107174;28;20175;-43
2021/03/09 14:21:57;;;;;;;7.00;6.40;;;;;;;;;;5108303;28;20845;-43
2021/03/09 14:24:23;;;;;;;7.45;6.53;;;;;;;;;;5114887;27;20173;-42
2021/03/09 14:26:49;;;;;;;15.50;6.60;;;;;;;;;;5117273;27;20193;-43
2021/03/09 14:29:15;;;;;;;7.70;6.30;;;;;;;;;;5109556;27;20607;-43
2021/03/09 14:31:40;;;;;;;7.60;5.40;;;;;;;;;;5103958;28;20695;-42
2021/03/09 14:34:05;;;;;;;6.03;5.30;;;;;;;;;;5103770;28;20368;-43